Time;durP1;ratioP1;P1;durP2;ratioP2;P2;SDS_P1;SDS_P2;PMS_P1;PMS_P2;Temp;Humidity;BMP_temperature;BMP_pressure;BME280_temperature;BME280_humidity;BME280_pressure;Samples;Min_cycle;Max_cycle;Signal;HPM_P1;HPM_P2
2022/03/29 00:00:36;;;;;;;19.73;17.58;;;7.00;99.90;;;;;;5102516;28;20447;-69
2022/03/29 00:03:02;;;;;;;21.17;17.00;;;6.90;99.90;;;;;;5101121;28;20088;-69
2022/03/29 00:05:28;;;;;;;22.95;18.10;;;6.90;99.90;;;;;;5102530;28;20055;-69
2022/03/29 00:07:54;;;;;;;20.85;18.65;;;6.80;99.90;;;;;;5106100;27;20064;-69
2022/03/29 00:10:19;;;;;;;19.83;17.83;;;6.80;99.90;;;;;;5132061;27;20119;-69
2022/03/29 00:12:45;;;;;;;21.98;16.88;;;6.90;99.90;;;;;;5103228;28;20040;-69
2022/03/29 00:15:11;;;;;;;22.42;18.55;;;6.90;99.90;;;;;;5102636;28;20577;-69
2022/03/29 00:17:37;;;;;;;20.15;17.95;;;6.90;99.90;;;;;;5128982;27;20075;-69
2022/03/29 00:20:03;;;;;;;21.00;18.48;;;6.90;99.90;;;;;;5104140;28;20082;-69
2022/03/29 00:22:29;;;;;;;19.75;17.63;;;6.90;99.90;;;;;;5117978;27;20397;-69
2022/03/29 00:24:55;;;;;;;20.48;18.33;;;6.90;99.90;;;;;;5103892;28;20079;-69
2022/03/29 00:27:20;;;;;;;19.60;17.55;;;6.90;99.90;;;;;;5100923;28;20036;-69
2022/03/29 00:29:46;;;;;;;20.75;16.30;;;6.90;99.90;;;;;;5131626;27;20471;-69
2022/03/29 00:32:12;;;;;;;20.05;16.63;;;6.90;99.90;;;;;;5131339;27;20394;-69
2022/03/29 00:34:47;;;;;;;20.13;17.35;;;6.90;99.90;;;;;;5132125;27;20054;-69
2022/03/29 00:37:12;;;;;;;21.35;17.05;;;7.00;99.90;;;;;;5100967;28;20039;-69
2022/03/29 00:39:38;;;;;;;21.20;17.30;;;7.00;99.90;;;;;;5103403;28;20064;-69
2022/03/29 00:42:04;;;;;;;18.77;16.40;;;7.00;99.90;;;;;;5134679;27;20092;-69
2022/03/29 00:44:34;;;;;;;19.45;15.95;;;7.00;99.90;;;;;;5102387;28;20043;-69
2022/03/29 00:47:00;;;;;;;18.30;16.40;;;6.90;99.90;;;;;;5099721;28;21719;-69
2022/03/29 00:49:27;;;;;;;22.33;17.05;;;7.00;99.90;;;;;;5129925;27;20723;-69
2022/03/29 00:52:00;;;;;;;23.08;19.50;;;7.00;99.90;;;;;;5100324;27;20050;-69
2022/03/29 00:54:28;;;;;;;19.38;17.38;;;6.90;99.90;;;;;;5104817;27;20145;-69
2022/03/29 00:56:56;;;;;;;17.83;15.93;;;6.90;99.90;;;;;;5131155;27;20597;-69
2022/03/29 00:59:22;;;;;;;20.55;17.85;;;7.00;99.90;;;;;;5101458;27;20138;-69
2022/03/29 01:01:48;;;;;;;18.60;16.42;;;7.00;99.90;;;;;;5104389;27;20059;-71
2022/03/29 01:04:14;;;;;;;22.20;16.52;;;7.00;99.90;;;;;;5097784;28;20428;-71
2022/03/29 01:06:40;;;;;;;19.48;16.60;;;7.00;99.90;;;;;;5099597;27;20126;-71
2022/03/29 01:09:05;;;;;;;17.98;16.08;;;7.00;99.90;;;;;;5101672;27;20143;-71
2022/03/29 01:11:32;;;;;;;19.95;17.85;;;7.00;99.90;;;;;;5102938;27;20040;-71
2022/03/29 01:13:59;;;;;;;18.70;15.13;;;7.00;99.90;;;;;;5102861;27;20049;-71
2022/03/29 01:19:12;;;;;;;21.95;15.98;;;6.90;99.90;;;;;;5101032;27;20043;-71
2022/03/29 01:21:40;;;;;;;19.83;16.27;;;7.00;99.90;;;;;;5101174;27;20035;-71
2022/03/29 01:24:06;;;;;;;20.30;16.55;;;6.90;99.90;;;;;;5103584;27;20047;-71
2022/03/29 01:26:33;;;;;;;24.15;17.63;;;6.90;99.90;;;;;;5108661;27;20600;-71
2022/03/29 01:29:00;;;;;;;25.65;16.98;;;6.90;99.90;;;;;;5102767;27;20401;-71
2022/03/29 01:31:26;;;;;;;21.05;16.85;;;6.90;99.90;;;;;;5097904;27;20122;-71
2022/03/29 01:33:51;;;;;;;22.02;18.55;;;6.90;99.90;;;;;;5106965;27;20149;-71
2022/03/29 01:36:17;;;;;;;22.27;16.05;;;6.80;99.90;;;;;;5106904;27;20131;-71
2022/03/29 01:38:43;;;;;;;24.00;16.60;;;6.80;99.90;;;;;;5100634;27;20130;-71
2022/03/29 01:41:10;;;;;;;21.40;17.00;;;6.80;99.90;;;;;;5134587;27;20080;-71
2022/03/29 01:43:36;;;;;;;21.73;17.05;;;6.70;99.90;;;;;;5132962;27;20081;-72
2022/03/29 01:46:02;;;;;;;22.17;18.73;;;6.70;99.90;;;;;;5099436;27;20114;-71
2022/03/29 01:48:28;;;;;;;22.58;18.33;;;6.70;99.90;;;;;;5099152;27;20042;-71
2022/03/29 01:50:53;;;;;;;22.65;18.38;;;6.70;99.90;;;;;;5102206;27;20040;-71
2022/03/29 01:53:27;;;;;;;22.15;16.75;;;6.70;99.90;;;;;;5099183;28;20048;-71
2022/03/29 01:55:57;;;;;;;23.33;17.67;;;6.70;99.90;;;;;;5125467;27;20039;-71
2022/03/29 01:58:24;;;;;;;21.45;17.20;;;6.70;99.90;;;;;;5102854;27;20470;-71
2022/03/29 02:00:50;;;;;;;22.85;18.77;;;6.80;99.90;;;;;;5101996;27;20050;-71
2022/03/29 02:03:16;;;;;;;20.10;17.02;;;6.80;99.90;;;;;;5103315;27;20039;-71
2022/03/29 02:05:41;;;;;;;22.17;17.13;;;6.80;99.90;;;;;;5099541;27;20070;-71
2022/03/29 02:08:07;;;;;;;20.35;16.05;;;6.90;99.90;;;;;;5131002;27;20373;-71
2022/03/29 02:10:33;;;;;;;22.60;16.55;;;6.90;99.90;;;;;;5101449;27;20273;-72
2022/03/29 02:12:59;;;;;;;18.45;16.42;;;6.90;99.90;;;;;;5103092;27;20127;-71
2022/03/29 02:15:25;;;;;;;27.05;19.00;;;7.00;99.90;;;;;;5129515;27;20089;-71
2022/03/29 02:17:52;;;;;;;22.33;18.05;;;7.00;99.90;;;;;;5102953;27;20089;-71
2022/03/29 02:20:19;;;;;;;26.65;17.95;;;7.00;99.90;;;;;;5098829;27;20132;-72
2022/03/29 02:22:45;;;;;;;20.92;17.95;;;7.00;99.90;;;;;;5102043;27;20500;-71
2022/03/29 02:25:12;;;;;;;20.98;16.98;;;7.10;99.90;;;;;;5103184;27;20114;-71
2022/03/29 02:27:41;;;;;;;22.98;16.27;;;7.10;99.90;;;;;;5105000;27;20031;-72
2022/03/29 02:30:08;;;;;;;22.65;16.63;;;7.10;99.90;;;;;;5106354;27;20112;-71
2022/03/29 02:32:34;;;;;;;23.10;18.23;;;7.10;99.90;;;;;;5104051;27;20121;-71
2022/03/29 02:35:00;;;;;;;23.60;18.35;;;7.20;99.90;;;;;;5102400;27;20076;-71
2022/03/29 02:37:26;;;;;;;22.42;16.85;;;7.20;99.90;;;;;;5131381;27;20044;-71
2022/03/29 02:39:52;;;;;;;19.80;17.63;;;7.20;99.90;;;;;;5132002;27;20058;-71
2022/03/29 02:42:17;;;;;;;22.77;17.75;;;7.20;99.90;;;;;;5130156;27;20036;-71
2022/03/29 02:44:43;;;;;;;23.33;18.58;;;7.20;99.90;;;;;;5130919;27;20044;-71
2022/03/29 02:47:09;;;;;;;21.63;18.88;;;7.20;99.90;;;;;;5101101;28;20042;-71
2022/03/29 02:49:35;;;;;;;29.75;18.38;;;7.30;99.90;;;;;;5103075;27;20040;-71
2022/03/29 02:52:01;;;;;;;20.60;16.83;;;7.30;99.90;;;;;;5128932;27;20043;-71
2022/03/29 02:54:27;;;;;;;24.52;18.25;;;7.30;99.90;;;;;;5104704;28;20051;-71
2022/03/29 02:56:54;;;;;;;25.30;16.83;;;7.30;99.90;;;;;;5102103;28;20419;-72
2022/03/29 02:59:19;;;;;;;23.23;17.10;;;7.30;99.90;;;;;;5105942;28;20036;-72
2022/03/29 03:01:45;;;;;;;25.85;19.52;;;7.40;99.90;;;;;;5127936;27;20044;-71
2022/03/29 03:04:13;;;;;;;20.92;17.15;;;7.40;99.90;;;;;;5103389;28;20062;-71
2022/03/29 03:06:40;;;;;;;24.88;19.10;;;7.40;99.90;;;;;;5099187;28;20052;-72
2022/03/29 03:09:06;;;;;;;22.13;17.52;;;7.40;99.90;;;;;;5130191;27;20035;-71
2022/03/29 03:11:32;;;;;;;25.48;18.92;;;7.40;99.90;;;;;;5100968;28;20053;-71
2022/03/29 03:13:57;;;;;;;22.30;17.38;;;7.40;99.90;;;;;;5127240;27;20130;-72
2022/03/29 03:16:23;;;;;;;35.72;18.02;;;7.40;99.90;;;;;;5096079;28;20044;-72
2022/03/29 03:18:49;;;;;;;22.63;17.95;;;7.40;99.90;;;;;;5098840;28;20512;-71
2022/03/29 03:21:15;;;;;;;19.02;16.30;;;7.40;99.90;;;;;;5099904;28;20035;-71
2022/03/29 03:23:40;;;;;;;23.02;18.15;;;7.50;99.90;;;;;;5101055;28;20046;-71
2022/03/29 03:26:06;;;;;;;23.95;17.98;;;7.50;99.90;;;;;;5098986;28;20127;-71
2022/03/29 03:28:32;;;;;;;22.30;18.17;;;7.50;99.90;;;;;;5127566;27;20101;-72
2022/03/29 03:30:57;;;;;;;21.58;17.67;;;7.50;99.90;;;;;;5100918;28;20064;-72
2022/03/29 03:33:23;;;;;;;21.30;18.27;;;7.50;99.90;;;;;;5100016;28;20097;-72
2022/03/29 03:35:48;;;;;;;22.35;17.77;;;7.50;99.90;;;;;;5100527;28;20047;-71
2022/03/29 03:38:14;;;;;;;22.83;17.13;;;7.50;99.90;;;;;;5098304;28;20051;-71
2022/03/29 03:40:41;;;;;;;21.20;17.20;;;7.50;99.90;;;;;;5104952;28;20122;-71
2022/03/29 03:43:07;;;;;;;22.40;17.75;;;7.60;99.90;;;;;;5097446;28;20040;-71
2022/03/29 03:45:33;;;;;;;24.60;17.80;;;7.50;99.90;;;;;;5130284;27;20047;-71
2022/03/29 03:47:58;;;;;;;24.05;18.67;;;7.60;99.90;;;;;;5099772;28;20047;-71
2022/03/29 03:50:24;;;;;;;24.83;18.05;;;7.60;99.90;;;;;;5127263;27;20150;-72
2022/03/29 03:52:51;;;;;;;22.27;18.30;;;7.60;99.90;;;;;;5097850;28;20043;-72
2022/03/29 03:55:18;;;;;;;26.08;18.00;;;7.60;99.90;;;;;;5099060;28;20047;-72
2022/03/29 03:57:44;;;;;;;28.33;18.35;;;7.60;99.90;;;;;;5102783;28;20052;-72
2022/03/29 04:00:11;;;;;;;25.90;19.90;;;7.60;99.90;;;;;;5103118;28;20076;-72
2022/03/29 04:02:37;;;;;;;23.67;18.83;;;7.60;99.90;;;;;;5099790;28;20119;-72
2022/03/29 04:05:03;;;;;;;29.45;19.05;;;7.60;99.90;;;;;;5099220;28;20038;-72
2022/03/29 04:07:35;;;;;;;25.95;18.45;;;7.60;99.90;;;;;;5100335;28;20036;-71
2022/03/29 04:10:12;;;;;;;25.23;19.08;;;7.60;99.90;;;;;;5104175;27;20998;-71
2022/03/29 04:12:38;;;;;;;22.10;18.10;;;7.60;99.90;;;;;;5102627;28;20035;-72
2022/03/29 04:15:05;;;;;;;27.63;19.38;;;7.60;99.90;;;;;;5103699;28;20492;-72
2022/03/29 04:17:31;;;;;;;24.30;18.42;;;7.60;99.90;;;;;;5102732;28;20065;-72
2022/03/29 04:19:58;;;;;;;23.85;18.38;;;7.60;99.90;;;;;;5100149;28;20044;-72
2022/03/29 04:22:24;;;;;;;27.63;18.60;;;7.60;99.90;;;;;;5102180;27;20039;-72
2022/03/29 04:24:49;;;;;;;25.33;18.77;;;7.60;99.90;;;;;;5103604;28;20040;-71
2022/03/29 04:27:15;;;;;;;25.98;18.35;;;7.60;99.90;;;;;;5100350;28;20054;-71
2022/03/29 04:29:41;;;;;;;24.65;19.10;;;7.50;99.90;;;;;;5100439;28;20040;-71
2022/03/29 04:32:07;;;;;;;26.52;19.23;;;7.50;99.90;;;;;;5102009;27;20051;-71
2022/03/29 04:34:34;;;;;;;22.45;17.52;;;7.40;99.90;;;;;;5104195;28;20055;-71
2022/03/29 04:37:00;;;;;;;27.63;19.23;;;7.40;99.90;;;;;;5100767;28;20043;-72
2022/03/29 04:39:26;;;;;;;29.08;21.02;;;7.40;99.90;;;;;;5132122;27;20047;-72
2022/03/29 04:41:52;;;;;;;22.58;18.25;;;7.40;99.90;;;;;;5097482;28;20085;-71
2022/03/29 04:44:17;;;;;;;28.10;18.45;;;7.40;99.90;;;;;;5130714;27;20040;-71
2022/03/29 04:46:43;;;;;;;27.75;19.50;;;7.40;99.90;;;;;;5099724;28;20053;-71
2022/03/29 04:49:09;;;;;;;23.75;17.98;;;7.30;99.90;;;;;;5099305;28;20478;-71
2022/03/29 04:51:35;;;;;;;27.58;20.17;;;7.30;99.90;;;;;;5100311;28;20039;-72
2022/03/29 04:54:02;;;;;;;24.65;18.67;;;7.30;99.90;;;;;;5101106;27;20040;-72
2022/03/29 04:56:28;;;;;;;24.13;18.95;;;7.30;99.90;;;;;;5099120;27;20088;-71
2022/03/29 04:58:53;;;;;;;24.67;19.42;;;7.30;99.90;;;;;;5096988;28;20052;-71
2022/03/29 05:01:20;;;;;;;23.23;18.10;;;7.30;99.90;;;;;;5130676;27;20043;-72
2022/03/29 05:03:46;;;;;;;29.17;19.73;;;7.30;99.90;;;;;;5102460;28;20092;-71
2022/03/29 05:06:11;;;;;;;27.60;18.40;;;7.30;99.90;;;;;;5097186;28;20048;-72
2022/03/29 05:08:37;;;;;;;22.20;17.80;;;7.30;99.90;;;;;;5102922;28;20040;-72
2022/03/29 05:11:02;;;;;;;26.73;17.77;;;7.30;99.90;;;;;;5101224;27;20331;-71
2022/03/29 05:13:28;;;;;;;29.20;18.67;;;7.30;99.90;;;;;;5103305;27;20031;-71
2022/03/29 05:15:55;;;;;;;25.50;18.25;;;7.30;99.90;;;;;;5101942;28;20486;-71
2022/03/29 05:18:21;;;;;;;24.17;18.73;;;7.30;99.90;;;;;;5103831;28;20481;-72
2022/03/29 05:20:46;;;;;;;26.35;19.35;;;7.30;99.90;;;;;;5101684;28;20035;-71
2022/03/29 05:23:12;;;;;;;26.92;19.60;;;7.40;99.90;;;;;;5103352;28;20100;-71
2022/03/29 05:25:38;;;;;;;35.53;19.45;;;7.40;99.90;;;;;;5102273;28;20047;-71
2022/03/29 05:28:04;;;;;;;25.27;18.40;;;7.30;99.90;;;;;;5099367;28;20043;-71
2022/03/29 05:30:30;;;;;;;27.02;20.05;;;7.30;99.90;;;;;;5101581;28;20040;-71
2022/03/29 05:33:00;;;;;;;28.23;19.80;;;7.30;99.90;;;;;;5129283;27;20043;-72
2022/03/29 05:35:29;;;;;;;27.85;18.50;;;7.30;99.90;;;;;;5101728;27;20075;-72
2022/03/29 05:37:57;;;;;;;36.15;19.92;;;7.30;99.90;;;;;;5098720;27;20035;-72
2022/03/29 05:40:23;;;;;;;30.15;18.55;;;7.30;99.90;;;;;;5100584;27;20059;-71
2022/03/29 05:42:48;;;;;;;32.78;19.38;;;7.20;99.90;;;;;;5098199;27;20035;-71
2022/03/29 05:45:14;;;;;;;26.77;18.98;;;7.20;99.90;;;;;;5127835;27;20032;-71
2022/03/29 05:50:26;;;;;;;30.90;20.55;;;7.30;99.90;;;;;;5100885;28;20593;-73
2022/03/29 05:52:51;;;;;;;30.38;19.92;;;7.30;99.90;;;;;;5098923;28;20433;-72
2022/03/29 05:55:17;;;;;;;31.38;20.02;;;7.30;99.90;;;;;;5102515;28;20044;-72
2022/03/29 05:57:43;;;;;;;34.28;20.58;;;7.30;99.90;;;;;;5131629;27;20046;-74
2022/03/29 06:00:10;;;;;;;34.17;19.92;;;7.30;99.90;;;;;;5099119;28;20043;-72
2022/03/29 06:02:37;;;;;;;29.60;20.33;;;7.40;99.90;;;;;;5098839;28;20032;-72
2022/03/29 06:05:03;;;;;;;30.65;19.55;;;7.40;99.90;;;;;;5099269;28;20055;-72
2022/03/29 06:07:29;;;;;;;30.70;20.45;;;7.40;99.90;;;;;;5101354;28;20119;-71
2022/03/29 06:09:55;;;;;;;36.28;21.73;;;7.50;99.90;;;;;;5099992;28;20114;-72
2022/03/29 06:12:21;;;;;;;31.58;20.50;;;7.40;99.90;;;;;;5131434;27;20048;-72
2022/03/29 06:14:47;;;;;;;34.78;20.23;;;7.40;99.90;;;;;;5100053;27;20543;-72
2022/03/29 06:17:13;;;;;;;32.08;21.10;;;7.40;99.90;;;;;;5098957;28;20047;-71
2022/03/29 06:19:39;;;;;;;30.23;20.85;;;7.30;99.90;;;;;;5095125;28;20040;-71
2022/03/29 06:22:05;;;;;;;32.67;20.75;;;7.40;99.90;;;;;;5092672;27;20043;-71
2022/03/29 06:24:31;;;;;;;30.67;21.55;;;7.40;99.90;;;;;;5096513;27;20032;-71
2022/03/29 06:26:58;;;;;;;30.70;20.98;;;7.40;99.90;;;;;;5095879;28;20437;-71
2022/03/29 06:29:24;;;;;;;33.00;19.55;;;7.30;99.90;;;;;;5095922;28;20336;-71
2022/03/29 06:31:49;;;;;;;33.85;22.33;;;7.40;99.90;;;;;;5097741;28;20071;-71
2022/03/29 06:34:15;;;;;;;28.45;20.63;;;7.50;99.90;;;;;;5094052;28;20123;-71
2022/03/29 06:36:41;;;;;;;32.13;21.38;;;7.40;99.90;;;;;;5096953;28;20528;-71
2022/03/29 06:39:08;;;;;;;32.10;20.02;;;7.40;99.90;;;;;;5096130;28;20039;-71
2022/03/29 06:41:34;;;;;;;32.22;21.95;;;7.40;99.90;;;;;;5098160;28;20062;-71
2022/03/29 06:44:00;;;;;;;33.70;21.42;;;7.40;99.90;;;;;;5095672;28;20169;-71
2022/03/29 06:46:26;;;;;;;31.17;20.08;;;7.40;99.90;;;;;;5097538;28;20020;-71
2022/03/29 06:48:54;;;;;;;30.20;20.85;;;7.50;99.90;;;;;;5091932;28;20047;-71
2022/03/29 06:51:20;;;;;;;35.47;21.52;;;7.40;99.90;;;;;;5097137;27;20043;-71
2022/03/29 06:53:45;;;;;;;34.13;21.73;;;7.40;99.90;;;;;;5094408;28;20074;-71
2022/03/29 06:56:11;;;;;;;31.50;20.05;;;7.40;99.90;;;;;;5093096;28;20443;-71
2022/03/29 06:58:38;;;;;;;31.20;19.85;;;7.40;99.90;;;;;;5096464;28;20039;-72
2022/03/29 07:01:04;;;;;;;32.63;21.05;;;7.40;99.90;;;;;;5093398;28;20078;-71
2022/03/29 07:03:35;;;;;;;33.20;20.88;;;7.50;99.90;;;;;;5095929;28;20465;-71
2022/03/29 07:06:03;;;;;;;35.45;21.25;;;7.50;99.90;;;;;;5093142;28;20036;-71
2022/03/29 07:08:30;;;;;;;35.67;20.88;;;7.50;99.90;;;;;;5128121;27;20043;-71
2022/03/29 07:13:41;;;;;;;31.80;21.15;;;7.70;99.90;;;;;;5096942;28;20040;-71
2022/03/29 07:16:08;;;;;;;30.33;21.50;;;7.60;99.90;;;;;;5097003;28;20047;-72
2022/03/29 07:18:34;;;;;;;40.53;21.38;;;7.70;99.90;;;;;;5096451;28;20043;-72
2022/03/29 07:21:00;;;;;;;37.38;20.83;;;7.70;99.90;;;;;;5095313;28;20070;-71
2022/03/29 07:23:27;;;;;;;31.52;19.98;;;7.70;99.90;;;;;;5094698;28;20116;-71
2022/03/29 07:25:53;;;;;;;28.35;19.02;;;7.80;99.90;;;;;;5095184;28;20020;-71
2022/03/29 07:28:20;;;;;;;30.92;20.10;;;7.80;99.90;;;;;;5095809;28;20039;-71
2022/03/29 07:30:46;;;;;;;39.72;21.48;;;7.80;99.90;;;;;;5097489;28;20043;-71
2022/03/29 07:33:13;;;;;;;33.78;20.63;;;7.90;99.90;;;;;;5093573;28;20456;-71
2022/03/29 07:35:39;;;;;;;33.00;19.65;;;8.00;99.90;;;;;;5095678;28;20082;-71
2022/03/29 07:38:08;;;;;;;36.03;19.27;;;8.10;99.90;;;;;;5097394;28;20032;-71
2022/03/29 07:40:34;;;;;;;50.92;21.25;;;8.10;99.90;;;;;;5094320;28;20052;-71
2022/03/29 07:43:00;;;;;;;33.08;20.08;;;8.10;99.90;;;;;;5105397;27;20362;-71
2022/03/29 07:45:27;;;;;;;38.90;20.60;;;8.00;99.90;;;;;;5112859;27;20050;-71
2022/03/29 07:47:56;;;;;;;34.88;20.35;;;8.20;99.90;;;;;;5101517;28;20581;-71
2022/03/29 07:50:23;;;;;;;34.00;20.15;;;8.20;99.90;;;;;;5099620;28;20093;-71
2022/03/29 07:52:50;;;;;;;34.58;21.23;;;8.20;99.90;;;;;;5101264;27;20117;-71
2022/03/29 07:55:16;;;;;;;35.80;20.80;;;8.30;99.90;;;;;;5102664;27;20402;-71
2022/03/29 07:57:43;;;;;;;32.63;20.05;;;8.30;99.90;;;;;;5089612;28;20071;-71
2022/03/29 08:02:55;;;;;;;31.80;19.67;;;8.40;99.90;;;;;;5099447;27;20044;-71
2022/03/29 08:05:22;;;;;;;30.40;18.45;;;8.50;99.90;;;;;;5099836;28;20386;-71
2022/03/29 08:07:48;;;;;;;34.05;20.42;;;8.50;99.90;;;;;;5099269;28;20055;-71
2022/03/29 08:10:14;;;;;;;34.30;20.17;;;8.50;99.90;;;;;;5099222;27;20123;-72
2022/03/29 08:12:41;;;;;;;36.80;19.48;;;8.50;99.90;;;;;;5094631;27;20043;-69
2022/03/29 08:15:08;;;;;;;33.08;19.85;;;8.50;99.90;;;;;;5098106;27;20047;-69
2022/03/29 08:17:34;;;;;;;34.60;18.83;;;8.60;99.90;;;;;;5100986;27;20044;-69
2022/03/29 08:20:02;;;;;;;33.05;19.92;;;8.70;99.90;;;;;;5097502;27;20044;-69
2022/03/29 08:22:27;;;;;;;36.03;19.52;;;8.70;99.90;;;;;;5096553;27;20063;-68
2022/03/29 08:24:53;;;;;;;32.55;18.17;;;8.80;99.90;;;;;;5098439;27;20135;-69
2022/03/29 08:27:19;;;;;;;33.05;19.83;;;8.80;99.90;;;;;;5100085;27;20046;-69
2022/03/29 08:29:47;;;;;;;32.38;19.13;;;8.80;99.90;;;;;;5099908;27;20088;-69
2022/03/29 08:32:12;;;;;;;28.63;18.42;;;8.80;99.90;;;;;;5129287;27;20629;-69
2022/03/29 08:34:39;;;;;;;32.67;19.85;;;8.80;99.90;;;;;;5129602;27;20036;-69
2022/03/29 08:37:05;;;;;;;35.65;19.27;;;8.70;99.90;;;;;;5102320;28;20044;-69
2022/03/29 08:39:31;;;;;;;29.35;17.92;;;8.80;99.90;;;;;;5084996;28;20040;-69
2022/03/29 08:42:07;;;;;;;38.00;20.50;;;8.80;99.90;;;;;;5097685;27;20032;-69
2022/03/29 08:44:33;;;;;;;31.88;19.35;;;8.80;99.90;;;;;;5099380;27;20082;-69
2022/03/29 08:47:00;;;;;;;32.13;20.27;;;8.80;99.90;;;;;;5096922;27;20123;-69
2022/03/29 08:49:27;;;;;;;31.15;20.33;;;8.80;99.90;;;;;;5094227;27;20059;-69
2022/03/29 08:51:53;;;;;;;37.00;19.60;;;8.90;99.90;;;;;;5079643;27;20480;-69
2022/03/29 08:54:20;;;;;;;37.70;20.98;;;8.90;99.90;;;;;;5097995;28;20394;-69
2022/03/29 08:56:46;;;;;;;35.35;20.92;;;8.90;99.90;;;;;;5097949;27;20204;-69
2022/03/29 08:59:12;;;;;;;34.10;20.35;;;8.90;99.90;;;;;;5083158;28;20039;-69
2022/03/29 09:01:38;;;;;;;30.92;20.35;;;9.00;99.90;;;;;;5097769;27;20043;-69
2022/03/29 09:04:07;;;;;;;37.00;20.05;;;9.00;99.90;;;;;;5097259;27;20542;-69
2022/03/29 09:06:54;;;;;;;29.02;19.42;;;8.90;99.90;;;;;;5097244;28;20032;-69
2022/03/29 09:09:41;;;;;;;41.17;20.42;;;9.00;99.90;;;;;;5098033;28;20127;-69
2022/03/29 09:12:18;;;;;;;31.40;20.55;;;9.00;99.90;;;;;;5097960;27;20392;-69
2022/03/29 09:15:01;;;;;;;39.85;20.83;;;9.10;99.90;;;;;;5095117;27;20072;-69
2022/03/29 09:17:38;;;;;;;34.55;19.35;;;9.20;99.90;;;;;;5098539;27;20177;-69
2022/03/29 09:20:10;;;;;;;32.53;19.15;;;9.30;99.90;;;;;;5094919;28;20063;-69
2022/03/29 09:22:36;;;;;;;35.15;18.75;;;9.40;99.90;;;;;;5102560;27;20444;-69
2022/03/29 09:25:04;;;;;;;27.60;19.45;;;9.60;99.90;;;;;;5096853;27;20035;-69
2022/03/29 09:27:30;;;;;;;32.75;17.42;;;9.70;99.90;;;;;;5077650;28;21557;-69
2022/03/29 09:30:06;;;;;;;30.70;18.63;;;9.80;99.90;;;;;;5098034;27;20035;-69
2022/03/29 09:32:32;;;;;;;30.95;16.60;;;9.90;99.90;;;;;;5099660;28;20418;-69
2022/03/29 09:35:08;;;;;;;29.42;17.23;;;10.10;99.90;;;;;;5094188;27;20105;-69
2022/03/29 09:37:35;;;;;;;30.17;17.95;;;10.20;99.90;;;;;;5094692;28;20055;-69
2022/03/29 09:40:00;;;;;;;27.27;17.30;;;10.10;99.90;;;;;;5095991;28;20530;-69
2022/03/29 09:42:27;;;;;;;30.55;17.55;;;10.10;99.90;;;;;;5098212;28;20078;-69
2022/03/29 09:44:54;;;;;;;25.63;17.63;;;10.30;99.90;;;;;;5093413;28;20040;-69
2022/03/29 09:47:22;;;;;;;30.98;18.38;;;10.40;99.90;;;;;;5096691;28;20074;-69
2022/03/29 09:49:57;;;;;;;28.70;18.50;;;10.50;99.90;;;;;;5099715;28;20039;-69
2022/03/29 09:52:28;;;;;;;33.97;18.35;;;10.50;99.90;;;;;;5095081;28;20043;-69
2022/03/29 09:55:26;;;;;;;30.38;17.48;;;10.60;99.90;;;;;;5097842;27;20036;-69
2022/03/29 09:57:54;;;;;;;32.78;17.15;;;10.70;99.90;;;;;;5078098;27;20044;-69
2022/03/29 10:00:32;;;;;;;32.47;18.85;;;10.80;99.90;;;;;;5094302;27;20043;-69
2022/03/29 10:02:58;;;;;;;28.17;18.25;;;10.90;99.90;;;;;;5096067;27;20046;-69
2022/03/29 10:05:25;;;;;;;25.17;18.13;;;10.90;99.90;;;;;;5092845;27;20169;-69
2022/03/29 10:10:50;;;;;;;25.17;16.50;;;10.70;99.90;;;;;;5094083;28;20047;-69
2022/03/29 10:13:17;;;;;;;32.63;16.88;;;10.60;99.90;;;;;;5095643;28;20058;-69
2022/03/29 10:15:45;;;;;;;35.53;18.83;;;10.70;99.90;;;;;;5096745;28;20497;-69
2022/03/29 10:18:11;;;;;;;27.65;18.05;;;10.80;99.90;;;;;;5096414;28;20047;-69
2022/03/29 10:20:37;;;;;;;24.45;17.15;;;10.90;99.90;;;;;;5100129;27;20066;-69
2022/03/29 10:23:06;;;;;;;25.98;16.25;;;10.90;99.90;;;;;;5097858;28;20028;-72
2022/03/29 10:25:32;;;;;;;31.65;17.63;;;10.90;99.90;;;;;;5097159;27;20401;-72
2022/03/29 10:28:00;;;;;;;28.50;17.65;;;10.90;99.90;;;;;;5098157;28;20051;-72
2022/03/29 10:30:41;;;;;;;26.02;16.88;;;10.90;99.90;;;;;;5095240;28;20036;-72
2022/03/29 10:33:26;;;;;;;30.50;15.73;;;11.00;99.90;;;;;;5097180;28;20040;-72
2022/03/29 10:36:09;;;;;;;27.60;16.52;;;11.30;99.90;;;;;;5095997;27;20123;-72
2022/03/29 10:38:47;;;;;;;24.48;15.25;;;11.50;99.90;;;;;;5128802;27;20078;-72
2022/03/29 10:41:28;;;;;;;21.52;14.32;;;11.80;99.90;;;;;;5096259;28;20509;-72
2022/03/29 10:43:54;;;;;;;26.75;15.95;;;12.10;99.90;;;;;;5100385;28;20043;-72
2022/03/29 10:46:25;;;;;;;23.70;16.00;;;12.40;99.90;;;;;;5093970;28;20035;-72
2022/03/29 10:49:21;;;;;;;24.67;15.75;;;12.60;99.90;;;;;;5096260;28;20032;-72
2022/03/29 10:52:13;;;;;;;28.92;16.23;;;12.70;99.90;;;;;;5063426;28;20048;-70
2022/03/29 10:54:41;;;;;;;30.35;17.65;;;12.90;99.90;;;;;;5071857;28;20055;-70
2022/03/29 10:57:18;;;;;;;29.80;17.15;;;12.90;99.90;;;;;;5091950;28;20040;-70
2022/03/29 10:59:50;;;;;;;28.33;15.30;;;12.90;99.90;;;;;;5093342;28;20559;-69
2022/03/29 11:02:20;;;;;;;25.77;15.68;;;12.90;99.90;;;;;;5100280;28;20042;-70
2022/03/29 11:05:05;;;;;;;25.35;15.63;;;12.90;99.90;;;;;;5092022;28;20128;-69
2022/03/29 11:07:33;;;;;;;23.65;14.85;;;13.20;99.90;;;;;;5095484;28;20039;-70
2022/03/29 11:10:10;;;;;;;29.58;15.82;;;13.50;99.90;;;;;;5090361;28;20048;-70
2022/03/29 11:12:53;;;;;;;25.70;16.08;;;13.60;99.90;;;;;;5094443;28;20164;-70
2022/03/29 11:15:39;;;;;;;23.42;15.75;;;13.50;99.00;;;;;;5091478;28;20047;-70
2022/03/29 11:18:31;;;;;;;21.92;15.18;;;13.40;99.00;;;;;;5101716;27;20485;-70
2022/03/29 11:21:05;;;;;;;21.20;14.45;;;13.40;97.80;;;;;;5092924;27;20062;-70
2022/03/29 11:23:45;;;;;;;23.73;14.88;;;13.10;98.10;;;;;;5114819;27;20050;-69
2022/03/29 11:26:15;;;;;;;25.30;15.32;;;13.20;98.20;;;;;;5099015;28;20036;-70
2022/03/29 11:28:56;;;;;;;24.25;14.15;;;13.30;98.50;;;;;;5098610;27;20502;-70
2022/03/29 11:31:24;;;;;;;24.00;15.23;;;13.60;97.80;;;;;;5100574;28;20100;-70
2022/03/29 11:33:50;;;;;;;25.52;14.52;;;13.90;96.80;;;;;;5131892;27;20831;-70
2022/03/29 11:36:19;;;;;;;24.55;14.63;;;14.00;95.70;;;;;;5100568;28;20057;-69
2022/03/29 11:38:45;;;;;;;24.50;14.73;;;14.10;94.90;;;;;;5099858;27;20067;-70
2022/03/29 11:41:23;;;;;;;22.95;14.52;;;13.90;94.20;;;;;;5099439;28;20032;-70
2022/03/29 11:43:56;;;;;;;22.73;13.02;;;14.10;93.10;;;;;;5097674;27;20031;-69
2022/03/29 11:46:22;;;;;;;28.20;14.38;;;14.40;93.10;;;;;;5130893;27;20076;-70
2022/03/29 11:48:50;;;;;;;24.77;14.50;;;14.50;94.00;;;;;;5100689;27;20500;-70
2022/03/29 11:51:16;;;;;;;25.58;14.35;;;14.60;93.70;;;;;;5097190;28;20027;-70
2022/03/29 11:53:43;;;;;;;20.23;14.20;;;14.70;92.90;;;;;;5095091;27;20047;-69
2022/03/29 11:56:13;;;;;;;21.80;14.20;;;14.50;91.10;;;;;;5097325;28;20047;-69
2022/03/29 11:58:41;;;;;;;22.67;14.45;;;14.20;91.10;;;;;;5099870;27;20036;-68
2022/03/29 12:01:08;;;;;;;24.58;13.82;;;13.90;88.80;;;;;;5095246;28;20036;-69
2022/03/29 12:03:42;;;;;;;24.35;13.38;;;13.40;91.60;;;;;;5081984;28;20048;-69
2022/03/29 12:06:12;;;;;;;23.40;13.98;;;13.10;93.70;;;;;;5103502;27;20085;-69
2022/03/29 12:09:01;;;;;;;27.10;13.45;;;13.10;93.40;;;;;;5129460;27;20115;-69
2022/03/29 12:11:28;;;;;;;19.08;12.93;;;13.40;94.90;;;;;;5096112;27;20039;-69
2022/03/29 12:14:15;;;;;;;18.40;11.90;;;13.70;93.50;;;;;;5100344;28;20039;-69
2022/03/29 12:16:43;;;;;;;24.55;12.90;;;13.80;93.20;;;;;;5082780;28;20035;-69
2022/03/29 12:19:17;;;;;;;19.83;11.43;;;13.70;91.30;;;;;;5097939;28;20637;-69
2022/03/29 12:21:46;;;;;;;22.77;12.63;;;13.60;90.80;;;;;;5099313;28;20047;-69
2022/03/29 12:24:13;;;;;;;19.42;11.60;;;13.50;91.60;;;;;;5097300;28;20044;-69
2022/03/29 12:26:42;;;;;;;20.13;11.70;;;13.60;92.30;;;;;;5096582;28;20040;-69
2022/03/29 12:29:12;;;;;;;19.83;11.70;;;13.70;91.90;;;;;;5095234;28;20036;-69
2022/03/29 12:31:39;;;;;;;20.08;10.77;;;13.90;92.70;;;;;;5100416;28;20040;-69
2022/03/29 12:34:06;;;;;;;30.35;12.23;;;14.20;91.90;;;;;;5094680;28;20129;-69
2022/03/29 12:36:32;;;;;;;21.63;10.52;;;14.40;92.10;;;;;;5091097;28;20044;-69
2022/03/29 12:39:05;;;;;;;25.05;12.50;;;14.40;91.30;;;;;;5095336;28;20032;-69
2022/03/29 12:41:42;;;;;;;23.58;11.70;;;14.10;90.20;;;;;;5100438;28;20048;-69
2022/03/29 12:44:10;;;;;;;22.27;11.30;;;14.00;90.10;;;;;;5098446;28;20043;-68
2022/03/29 12:46:38;;;;;;;19.38;10.90;;;13.90;91.00;;;;;;5097838;28;20032;-69
2022/03/29 12:49:05;;;;;;;25.08;11.32;;;14.00;90.50;;;;;;5095232;28;20066;-69
2022/03/29 12:51:36;;;;;;;22.73;10.73;;;14.00;90.20;;;;;;5094234;28;20043;-69